createdAt,value
2022-11-12T21:50:37.035Z,4.34
2022-11-12T21:51:29.190Z,4.33
2022-11-12T21:52:29.032Z,4.31
2022-11-12T21:53:28.931Z,4.23
2022-11-12T21:54:29.083Z,4.05
2022-11-12T21:55:29.870Z,3.91
2022-11-12T21:56:29.129Z,3.83
2022-11-12T21:57:28.991Z,3.88
2022-11-12T21:58:29.312Z,3.92
2022-11-12T21:59:28.882Z,3.95
2022-11-12T22:00:41.719Z,3.94
2022-11-12T22:01:29.222Z,3.86
2022-11-12T22:02:29.389Z,3.83
2022-11-12T22:03:28.901Z,3.86
2022-11-12T22:04:28.942Z,3.91
2022-11-12T22:05:29.040Z,3.91
2022-11-12T22:06:29.287Z,3.94
2022-11-12T22:07:28.941Z,3.94
2022-11-12T22:08:28.527Z,3.94
2022-11-12T22:09:30.320Z,3.97
2022-11-12T22:10:28.700Z,3.98
2022-11-12T22:11:28.901Z,3.98
2022-11-12T22:12:28.802Z,3.98
2022-11-12T22:13:28.933Z,3.97
2022-11-12T22:14:28.671Z,3.92
2022-11-12T22:15:29.461Z,3.92
2022-11-12T22:16:28.871Z,3.92
2022-11-12T22:17:28.950Z,3.94
2022-11-12T22:18:29.143Z,3.92
2022-11-12T22:19:29.222Z,3.91
2022-11-12T22:20:28.730Z,3.92
2022-11-12T22:21:28.844Z,3.94
2022-11-12T22:22:28.802Z,3.94
2022-11-12T22:23:28.790Z,3.92
2022-11-12T22:24:28.900Z,3.92
2022-11-12T22:25:28.580Z,3.92
2022-11-12T22:26:28.742Z,3.92
2022-11-12T22:27:28.561Z,3.88
2022-11-12T22:28:29.135Z,3.88
2022-11-12T22:29:28.682Z,3.88
2022-11-12T22:30:28.681Z,3.90
2022-11-12T22:31:28.720Z,3.91
2022-11-12T22:32:28.852Z,3.90
2022-11-12T22:33:28.950Z,3.91
2022-11-12T22:34:28.670Z,3.90
2022-11-12T22:35:28.652Z,3.90
2022-11-12T22:36:28.981Z,3.91
2022-11-12T22:37:28.940Z,3.91
2022-11-12T22:38:29.235Z,3.88
2022-11-12T22:39:28.760Z,3.80
2022-11-12T22:40:28.441Z,3.70
2022-11-12T22:41:28.811Z,3.64
2022-11-12T22:42:28.491Z,3.54
2022-11-12T22:43:28.596Z,3.48
2022-11-12T22:44:28.530Z,3.47
2022-11-12T22:45:28.656Z,3.54
2022-11-12T22:46:29.431Z,3.44
2022-11-12T22:47:29.991Z,3.33
2022-11-12T22:48:29.758Z,3.27
2022-11-12T22:49:29.492Z,3.22
2022-11-12T22:50:28.455Z,3.18
2022-11-12T22:51:28.523Z,3.24
2022-11-12T22:52:29.001Z,3.27
2022-11-12T22:53:29.861Z,3.21
2022-11-12T22:54:28.391Z,3.27
2022-11-12T22:55:28.341Z,3.19
2022-11-12T22:56:29.501Z,3.17
2022-11-12T22:57:29.374Z,3.24
2022-11-12T22:58:28.702Z,3.27
2022-11-12T22:59:28.394Z,3.28
2022-11-12T23:00:29.001Z,3.33
2022-11-12T23:01:28.356Z,3.35
2022-11-12T23:02:28.340Z,3.33
2022-11-12T23:03:28.232Z,3.22
